createdAt,value
2019-01-21T00:00:37.243Z,34.43
2019-01-21T00:03:24.330Z,34.80
2019-01-21T00:06:11.680Z,35.53
2019-01-21T00:08:59.044Z,35.03
2019-01-21T00:11:46.333Z,34.70
2019-01-21T00:14:33.637Z,35.80
2019-01-21T00:17:22.456Z,35.97
2019-01-21T00:20:09.719Z,36.73
2019-01-21T00:22:56.729Z,37.13
2019-01-21T00:25:43.860Z,36.23
2019-01-21T00:28:30.528Z,36.53
2019-01-21T00:31:17.660Z,35.60
2019-01-21T00:34:04.831Z,37.23
2019-01-21T00:36:51.765Z,35.10
2019-01-21T00:39:38.722Z,35.07
2019-01-21T00:42:25.972Z,34.33
2019-01-21T00:45:13.011Z,34.43
2019-01-21T00:48:00.405Z,35.70
2019-01-21T00:50:47.347Z,34.17
2019-01-21T00:53:34.745Z,35.40
2019-01-21T00:56:21.975Z,34.80
2019-01-21T00:59:08.962Z,35.70
2019-01-21T01:01:56.144Z,35.63
2019-01-21T01:04:43.558Z,35.13
2019-01-21T01:07:30.951Z,34.87
2019-01-21T01:10:18.067Z,35.87
2019-01-21T01:13:05.226Z,34.33
2019-01-21T01:15:52.511Z,33.70
2019-01-21T01:18:39.760Z,33.47
2019-01-21T01:21:27.178Z,33.90
2019-01-21T01:24:13.852Z,34.60
2019-01-21T01:27:01.070Z,33.63
2019-01-21T01:29:47.727Z,35.33
2019-01-21T01:32:34.956Z,34.27
2019-01-21T01:35:22.073Z,33.27
2019-01-21T01:38:09.167Z,34.57
2019-01-21T01:40:56.378Z,35.47
2019-01-21T01:43:43.641Z,34.43
2019-01-21T01:46:30.910Z,35.17
2019-01-21T01:49:17.890Z,32.67
2019-01-21T01:52:05.245Z,32.57
2019-01-21T01:54:52.440Z,34.27
2019-01-21T01:57:39.516Z,34.17
2019-01-21T02:00:26.613Z,33.10
2019-01-21T02:03:13.584Z,33.50
2019-01-21T02:06:00.720Z,34.80
2019-01-21T02:08:48.027Z,34.77
2019-01-21T02:11:35.379Z,33.20
2019-01-21T02:14:22.416Z,34.43
2019-01-21T02:17:09.891Z,33.10
2019-01-21T02:19:59.892Z,34.20
2019-01-21T02:22:49.465Z,32.60
2019-01-21T02:25:45.231Z,32.27
2019-01-21T02:28:44.081Z,33.30
2019-01-21T02:31:42.936Z,33.20
2019-01-21T02:34:48.088Z,32.90
2019-01-21T02:38:03.599Z,33.07
2019-01-21T02:40:59.752Z,32.87
2019-01-21T02:43:49.494Z,32.27
2019-01-21T02:46:54.608Z,33.30
2019-01-21T02:49:51.075Z,33.10
2019-01-21T02:52:43.809Z,32.57
2019-01-21T02:55:48.484Z,32.73
2019-01-21T02:58:55.313Z,32.30
2019-01-21T03:01:51.319Z,32.93
2019-01-21T03:04:59.457Z,32.40
2019-01-21T03:08:07.684Z,32.80
2019-01-21T03:11:14.423Z,31.40
2019-01-21T03:14:28.685Z,32.03
2019-01-21T03:17:24.803Z,32.70
2019-01-21T03:20:29.953Z,32.03
2019-01-21T03:23:46.191Z,31.57
2019-01-21T03:26:45.260Z,32.53
2019-01-21T03:29:50.568Z,31.90
2019-01-21T03:33:04.128Z,31.80
2019-01-21T03:36:06.257Z,31.40
2019-01-21T03:39:05.237Z,32.73
2019-01-21T03:42:03.547Z,34.17
2019-01-21T03:45:08.505Z,33.93
2019-01-21T03:47:58.564Z,32.87
2019-01-21T03:51:24.913Z,32.80
2019-01-21T03:54:14.963Z,32.87
2019-01-21T03:57:04.984Z,32.80
2019-01-21T03:59:55.201Z,34.70
2019-01-21T04:02:45.560Z,32.97
2019-01-21T04:05:48.275Z,32.33
2019-01-21T04:08:38.851Z,32.33
2019-01-21T04:11:48.628Z,33.67
2019-01-21T04:14:56.877Z,32.03
2019-01-21T04:18:11.097Z,32.57
2019-01-21T04:21:13.065Z,34.33
2019-01-21T04:24:21.006Z,34.30
2019-01-21T04:27:19.681Z,33.57
2019-01-21T04:30:09.694Z,31.93
2019-01-21T04:33:05.149Z,32.57
2019-01-21T04:35:58.143Z,32.40
2019-01-21T04:38:59.897Z,34.17
2019-01-21T04:42:06.442Z,35.03
2019-01-21T04:44:59.978Z,33.83
2019-01-21T04:48:08.063Z,34.23
2019-01-21T04:50:58.215Z,33.97
2019-01-21T04:54:15.273Z,34.80
2019-01-21T04:57:24.964Z,31.97
2019-01-21T05:00:36.317Z,33.97
2019-01-21T05:03:47.196Z,33.57
2019-01-21T05:06:56.460Z,34.43
2019-01-21T05:09:58.446Z,34.03
2019-01-21T05:12:57.437Z,35.27
2019-01-21T05:15:56.641Z,33.07
2019-01-21T05:18:52.837Z,35.20
2019-01-21T05:21:48.761Z,35.53
2019-01-21T05:24:59.910Z,35.23
2019-01-21T05:28:01.820Z,34.70
2019-01-21T05:31:06.744Z,34.57
2019-01-21T05:34:02.751Z,35.37
2019-01-21T05:36:52.879Z,36.10
2019-01-21T05:39:55.149Z,36.33
2019-01-21T05:42:57.377Z,35.90
2019-01-21T05:45:47.585Z,34.60
2019-01-21T05:48:48.924Z,35.87
2019-01-21T05:51:52.612Z,35.63
2019-01-21T05:54:57.428Z,35.90
2019-01-21T05:58:03.888Z,36.23
2019-01-21T06:01:15.223Z,36.57
2019-01-21T06:04:17.255Z,34.90
2019-01-21T06:07:16.277Z,37.60
2019-01-21T06:10:24.551Z,34.93
2019-01-21T06:13:29.617Z,35.47
2019-01-21T06:16:25.179Z,36.07
2019-01-21T06:19:27.225Z,37.13
2019-01-21T06:22:35.501Z,35.40
2019-01-21T06:25:28.092Z,34.47
2019-01-21T06:28:20.707Z,35.90
2019-01-21T06:31:13.780Z,34.20
2019-01-21T06:34:15.469Z,34.77
2019-01-21T06:37:22.105Z,35.77
2019-01-21T06:40:28.822Z,35.43
2019-01-21T06:43:40.120Z,33.77
2019-01-21T06:46:45.352Z,36.03
2019-01-21T06:49:38.016Z,36.07
2019-01-21T06:52:47.551Z,35.87
2019-01-21T06:55:43.452Z,34.50
2019-01-21T06:58:48.525Z,35.10
2019-01-21T07:01:41.408Z,35.27
2019-01-21T07:04:40.236Z,35.83
2019-01-21T07:07:33.250Z,35.47
2019-01-21T07:10:32.429Z,36.33
2019-01-21T07:13:37.084Z,35.27
2019-01-21T07:16:43.115Z,36.33
2019-01-21T07:19:35.914Z,34.63
2019-01-21T07:22:34.395Z,34.00
2019-01-21T07:25:24.487Z,35.63
2019-01-21T07:28:14.763Z,34.57
2019-01-21T07:31:16.816Z,35.87
2019-01-21T07:34:23.262Z,35.17
2019-01-21T07:37:18.940Z,34.90
2019-01-21T07:40:11.488Z,33.73
2019-01-21T07:43:22.375Z,34.93
2019-01-21T07:46:15.289Z,34.33
2019-01-21T07:49:08.443Z,35.10
2019-01-21T07:52:17.618Z,35.00
2019-01-21T07:55:07.745Z,33.70
2019-01-21T07:58:17.020Z,34.37
2019-01-21T08:01:07.098Z,35.37
2019-01-21T08:04:12.124Z,34.80
2019-01-21T08:07:05.164Z,33.80
2019-01-21T08:09:55.220Z,33.73
2019-01-21T08:13:00.427Z,34.03
2019-01-21T08:16:02.378Z,33.20
2019-01-21T08:18:52.141Z,32.53
2019-01-21T08:21:47.948Z,33.67
2019-01-21T08:24:52.945Z,32.03
2019-01-21T08:28:08.401Z,33.40
2019-01-21T08:30:58.454Z,31.63
2019-01-21T08:33:51.325Z,32.17
2019-01-21T08:36:52.979Z,31.77
2019-01-21T08:39:52.357Z,33.10
2019-01-21T08:42:54.437Z,32.40
2019-01-21T08:46:01.091Z,32.70
2019-01-21T08:49:13.896Z,33.23
2019-01-21T08:52:20.394Z,32.40
2019-01-21T08:55:21.924Z,32.60
2019-01-21T08:58:37.931Z,31.73
2019-01-21T09:01:53.500Z,31.90
2019-01-21T09:04:52.607Z,32.70
2019-01-21T09:07:45.645Z,34.03
2019-01-21T09:11:02.891Z,33.97
2019-01-21T09:13:55.781Z,33.80
2019-01-21T09:16:45.583Z,35.33
2019-01-21T09:19:38.450Z,35.13
2019-01-21T09:22:34.464Z,33.10
2019-01-21T09:25:30.462Z,34.87
2019-01-21T09:28:26.527Z,34.00
2019-01-21T09:31:34.375Z,34.97
2019-01-21T09:34:27.288Z,34.77
2019-01-21T09:37:26.351Z,34.70
2019-01-21T09:40:33.034Z,34.93
2019-01-21T09:43:28.988Z,34.73
2019-01-21T09:46:34.282Z,35.20
2019-01-21T09:49:20.148Z,36.67
2019-01-21T09:52:06.991Z,36.47
2019-01-21T09:54:54.039Z,35.43
2019-01-21T09:57:42.915Z,35.47
2019-01-21T10:00:30.161Z,35.17
2019-01-21T10:03:17.766Z,35.00
2019-01-21T10:06:06.839Z,33.70
2019-01-21T10:09:04.623Z,34.87
2019-01-21T10:12:00.721Z,33.67
2019-01-21T10:15:07.408Z,34.43
2019-01-21T10:18:03.682Z,35.67
2019-01-21T10:21:05.312Z,35.87
2019-01-21T10:24:19.584Z,35.93
2019-01-21T10:27:24.579Z,35.60
2019-01-21T10:30:17.555Z,36.27
2019-01-21T10:33:10.808Z,34.17
2019-01-21T10:36:21.642Z,34.87
2019-01-21T10:39:15.427Z,35.83
2019-01-21T10:42:20.580Z,35.87
2019-01-21T10:45:28.350Z,35.50
2019-01-21T10:48:36.359Z,35.17
2019-01-21T10:51:48.870Z,36.20
2019-01-21T10:54:54.961Z,35.83
2019-01-21T10:57:44.918Z,35.83
2019-01-21T11:00:59.937Z,36.83
2019-01-21T11:03:55.364Z,37.27
2019-01-21T11:06:54.380Z,36.20
2019-01-21T11:09:50.471Z,36.63
2019-01-21T11:13:03.016Z,38.20
2019-01-21T11:16:03.452Z,37.30
2019-01-21T11:19:03.988Z,35.37
2019-01-21T11:22:04.589Z,37.47
2019-01-21T11:25:05.101Z,35.93
2019-01-21T11:28:05.616Z,35.80
2019-01-21T11:31:06.400Z,35.90
2019-01-21T11:34:07.438Z,34.73
2019-01-21T11:37:08.346Z,34.37
2019-01-21T11:40:08.938Z,35.23
2019-01-21T11:43:09.392Z,35.00
2019-01-21T11:46:09.899Z,35.97
2019-01-21T11:49:10.635Z,35.60
2019-01-21T11:52:11.344Z,36.17
2019-01-21T11:55:12.007Z,35.63
2019-01-21T11:58:12.591Z,35.97
2019-01-21T12:01:13.189Z,40.97
2019-01-21T12:04:14.189Z,36.97
2019-01-21T12:07:14.924Z,35.37
2019-01-21T12:10:15.397Z,35.70
2019-01-21T12:13:16.011Z,35.97
2019-01-21T12:16:16.701Z,35.60
2019-01-21T12:19:17.393Z,37.23
2019-01-21T12:22:18.030Z,37.97
2019-01-21T12:25:18.602Z,35.30
2019-01-21T12:28:19.238Z,35.67
2019-01-21T12:31:20.079Z,36.33
2019-01-21T12:34:21.353Z,42.07
2019-01-21T12:37:21.908Z,39.97
2019-01-21T12:40:22.233Z,35.93
2019-01-21T12:43:22.895Z,40.10
2019-01-21T12:46:23.501Z,35.90
2019-01-21T12:49:24.029Z,35.03
2019-01-21T12:52:24.973Z,35.70
2019-01-21T12:55:25.828Z,35.57
2019-01-21T12:58:26.408Z,34.17
2019-01-21T13:01:27.453Z,35.20
2019-01-21T13:04:28.279Z,35.70
2019-01-21T13:07:28.649Z,34.43
2019-01-21T13:10:29.052Z,32.87
2019-01-21T13:13:29.479Z,33.17
2019-01-21T13:16:30.003Z,32.77
2019-01-21T13:19:31.169Z,31.13
2019-01-21T13:22:32.113Z,31.63
2019-01-21T13:25:32.449Z,32.20
2019-01-21T13:28:32.847Z,30.67
2019-01-21T13:31:33.255Z,33.27
2019-01-21T13:34:34.042Z,31.83
2019-01-21T13:37:34.691Z,32.57
2019-01-21T13:40:35.826Z,32.97
2019-01-21T13:43:36.101Z,35.03
2019-01-21T13:46:36.437Z,35.33
2019-01-21T13:49:36.890Z,33.63
2019-01-21T13:52:37.429Z,31.33
2019-01-21T13:55:38.238Z,31.33
2019-01-21T13:58:38.625Z,32.67
2019-01-21T14:01:39.652Z,32.33
2019-01-21T14:04:40.428Z,32.97
2019-01-21T14:07:41.196Z,34.67
2019-01-21T14:10:41.630Z,30.57
2019-01-21T14:13:41.969Z,30.53
2019-01-21T14:16:43.060Z,30.97
2019-01-21T14:19:43.778Z,29.87
2019-01-21T14:23:12.559Z,34.57
2019-01-21T14:26:39.764Z,31.03
2019-01-21T14:29:40.604Z,30.60
2019-01-21T14:32:40.909Z,55.53
2019-01-21T14:35:41.586Z,35.73
2019-01-21T14:38:42.213Z,28.80
2019-01-21T14:41:43.426Z,29.07
2019-01-21T14:44:43.953Z,28.27
2019-01-21T14:47:44.473Z,28.07
2019-01-21T14:50:50.397Z,28.27
2019-01-21T14:54:14.330Z,28.03
2019-01-21T14:57:41.543Z,28.87
2019-01-21T15:00:42.651Z,26.90
2019-01-21T15:03:43.282Z,28.60
2019-01-21T15:06:44.570Z,28.87
2019-01-21T15:09:44.963Z,27.70
2019-01-21T15:12:46.093Z,30.97
2019-01-21T15:15:46.462Z,37.77
2019-01-21T15:18:46.925Z,32.60
2019-01-21T15:21:47.695Z,31.87
2019-01-21T15:24:48.608Z,30.03
2019-01-21T15:27:49.819Z,29.67
2019-01-21T15:31:18.585Z,31.57
2019-01-21T15:34:46.015Z,29.80
2019-01-21T15:37:46.456Z,29.93
2019-01-21T15:40:46.766Z,29.30
2019-01-21T15:43:47.902Z,29.30
2019-01-21T15:46:48.671Z,31.33
2019-01-21T15:49:49.257Z,39.07
2019-01-21T15:52:50.521Z,29.77
2019-01-21T15:55:50.900Z,27.90
2019-01-21T15:58:51.878Z,27.97
2019-01-21T16:01:53.082Z,35.97
2019-01-21T16:04:53.542Z,29.70
2019-01-21T16:07:54.077Z,29.53
2019-01-21T16:11:03.603Z,28.33
2019-01-21T16:14:11.730Z,29.07
2019-01-21T16:17:13.115Z,33.47
2019-01-21T16:20:13.466Z,29.27
2019-01-21T16:23:14.239Z,28.47
2019-01-21T16:26:14.542Z,26.30
2019-01-21T16:29:14.922Z,27.67
2019-01-21T16:32:16.201Z,27.67
2019-01-21T16:35:17.120Z,27.00
2019-01-21T16:38:18.031Z,27.03
2019-01-21T16:41:18.512Z,27.87
2019-01-21T16:44:19.301Z,26.83
2019-01-21T16:47:19.912Z,28.10
2019-01-21T16:50:20.214Z,27.60
2019-01-21T16:53:20.543Z,27.27
2019-01-21T16:56:21.193Z,28.07
2019-01-21T16:59:22.026Z,27.70
2019-01-21T17:02:23.088Z,27.33
2019-01-21T17:05:23.903Z,27.40
2019-01-21T17:08:24.180Z,27.37
2019-01-21T17:11:25.001Z,27.63
2019-01-21T17:14:25.558Z,27.97
2019-01-21T17:17:26.465Z,26.23
2019-01-21T17:20:27.020Z,28.47
2019-01-21T17:23:27.568Z,26.93
2019-01-21T17:26:28.019Z,26.70
2019-01-21T17:29:28.591Z,28.43
2019-01-21T17:32:29.005Z,28.33
2019-01-21T17:35:29.382Z,28.67
2019-01-21T17:38:29.769Z,27.57
2019-01-21T17:41:30.888Z,27.53
2019-01-21T17:44:31.394Z,28.73
2019-01-21T17:47:31.674Z,28.27
2019-01-21T17:50:32.016Z,27.77
2019-01-21T17:53:32.465Z,27.20
2019-01-21T17:56:32.921Z,28.07
2019-01-21T17:59:33.823Z,25.93
2019-01-21T18:02:34.166Z,27.50
2019-01-21T18:05:35.398Z,26.83
2019-01-21T18:08:36.280Z,26.30
2019-01-21T18:11:41.290Z,26.17
2019-01-21T18:14:39.345Z,26.13
2019-01-21T18:17:39.724Z,24.83
2019-01-21T18:20:40.234Z,26.67
2019-01-21T18:23:40.863Z,42.07
2019-01-21T18:26:41.666Z,28.80
2019-01-21T18:29:42.921Z,30.73
2019-01-21T18:32:43.360Z,27.73
2019-01-21T18:35:44.016Z,31.43
2019-01-21T18:38:45.156Z,28.70
2019-01-21T18:41:45.639Z,27.87
2019-01-21T18:44:46.352Z,28.27
2019-01-21T18:47:46.754Z,34.83
2019-01-21T18:50:47.263Z,33.23
2019-01-21T18:53:48.032Z,32.03
2019-01-21T18:56:49.283Z,29.57
2019-01-21T18:59:49.830Z,28.63
2019-01-21T19:02:50.358Z,29.40
2019-01-21T19:05:51.584Z,29.40
2019-01-21T19:08:52.181Z,26.40
2019-01-21T19:11:52.682Z,29.30
2019-01-21T19:14:53.122Z,29.13
2019-01-21T19:17:53.496Z,27.37
2019-01-21T19:20:54.333Z,27.50
2019-01-21T19:23:55.088Z,26.90
2019-01-21T19:26:55.599Z,26.07
2019-01-21T19:29:56.004Z,25.67
2019-01-21T19:32:56.537Z,26.57
2019-01-21T19:35:57.521Z,27.23
2019-01-21T19:38:58.390Z,27.20
2019-01-21T19:41:58.859Z,25.93
2019-01-21T19:44:59.443Z,27.20
2019-01-21T19:48:00.270Z,25.77
2019-01-21T19:51:01.071Z,27.17
2019-01-21T19:54:01.554Z,26.40
2019-01-21T19:57:02.238Z,25.87
2019-01-21T20:00:02.646Z,22.70
2019-01-21T20:03:03.219Z,21.07
2019-01-21T20:06:03.982Z,21.57
2019-01-21T20:09:04.643Z,21.83
2019-01-21T20:12:05.402Z,21.73
2019-01-21T20:15:05.893Z,21.70
2019-01-21T20:18:06.612Z,22.80
2019-01-21T20:21:07.165Z,20.80
2019-01-21T20:24:07.632Z,21.93
2019-01-21T20:27:08.269Z,21.10
2019-01-21T20:30:08.777Z,22.37
2019-01-21T20:33:09.294Z,21.83
2019-01-21T20:35:57.916Z,20.70
2019-01-21T20:42:27.027Z,21.10
2019-01-21T20:45:27.904Z,21.13
2019-01-21T20:48:28.379Z,21.27
2019-01-21T20:51:29.210Z,21.53
2019-01-21T20:54:29.752Z,21.10
2019-01-21T20:57:30.341Z,21.43
2019-01-21T21:00:30.889Z,20.33
2019-01-21T21:03:32.111Z,19.73
2019-01-21T21:06:32.437Z,19.20
2019-01-21T21:09:34.217Z,18.47
2019-01-21T21:12:34.937Z,19.70
2019-01-21T21:15:36.154Z,17.53
2019-01-21T21:18:37.328Z,16.83
2019-01-21T21:21:37.816Z,16.33
2019-01-21T21:24:38.283Z,15.47
2019-01-21T21:27:38.653Z,14.87
2019-01-21T21:30:39.434Z,17.00
2019-01-21T21:33:40.807Z,17.43
2019-01-21T21:36:41.630Z,17.57
2019-01-21T21:39:43.254Z,18.70
2019-01-21T21:42:44.143Z,18.07
2019-01-21T21:45:45.521Z,18.20
2019-01-21T21:48:46.086Z,18.60
2019-01-21T21:51:47.458Z,18.17
2019-01-21T21:54:48.027Z,17.47
2019-01-21T21:57:36.726Z,19.17
2019-01-21T22:00:37.863Z,19.50
2019-01-21T22:03:38.387Z,19.23
2019-01-21T22:06:38.919Z,17.57
2019-01-21T22:09:39.764Z,17.60
2019-01-21T22:12:40.473Z,17.10
2019-01-21T22:15:41.426Z,16.53
2019-01-21T22:18:41.862Z,17.57
2019-01-21T22:21:42.778Z,18.40
2019-01-21T22:24:44.295Z,17.23
2019-01-21T22:27:44.661Z,17.97
2019-01-21T22:30:45.070Z,17.40
2019-01-21T22:33:46.486Z,17.60
2019-01-21T22:36:47.130Z,16.37
2019-01-21T22:39:48.229Z,18.10
2019-01-21T22:42:49.444Z,17.67
2019-01-21T22:45:49.925Z,16.97
2019-01-21T22:48:50.769Z,17.07
2019-01-21T22:51:52.145Z,17.93
2019-01-21T22:54:53.073Z,16.90
2019-01-21T22:57:53.795Z,16.87
2019-01-21T23:00:55.739Z,17.97
2019-01-21T23:03:56.454Z,17.63
2019-01-21T23:06:57.122Z,17.37
2019-01-21T23:09:58.338Z,18.27
2019-01-21T23:12:59.240Z,19.00
2019-01-21T23:15:59.858Z,18.83
2019-01-21T23:19:00.330Z,18.47
2019-01-21T23:22:00.710Z,18.17
2019-01-21T23:25:01.104Z,16.67
2019-01-21T23:28:01.790Z,17.93
2019-01-21T23:31:02.815Z,17.13
2019-01-21T23:34:03.431Z,16.93
2019-01-21T23:37:04.790Z,17.20
2019-01-21T23:40:05.624Z,16.90
2019-01-21T23:43:06.193Z,16.03
2019-01-21T23:46:06.850Z,16.60
2019-01-21T23:49:08.453Z,17.50
2019-01-21T23:52:09.209Z,15.80
2019-01-21T23:55:10.238Z,15.37
2019-01-21T23:58:10.714Z,15.50
